createdAt,value
2018-01-19T00:01:55.753Z,56.77
2018-01-19T00:04:23.521Z,57.14
2018-01-19T00:06:51.869Z,56.40
2018-01-19T00:09:19.734Z,57.46
2018-01-19T00:11:47.301Z,57.02
2018-01-19T00:14:14.939Z,56.92
2018-01-19T00:16:42.544Z,55.72
2018-01-19T00:19:10.483Z,56.96
2018-01-19T00:21:38.196Z,56.29
2018-01-19T00:24:05.844Z,57.01
2018-01-19T00:26:33.500Z,57.79
2018-01-19T00:29:01.118Z,56.92
2018-01-19T00:31:28.733Z,56.79
2018-01-19T00:33:56.347Z,56.45
2018-01-19T00:36:24.154Z,55.38
2018-01-19T00:38:51.792Z,56.51
2018-01-19T00:41:19.434Z,57.15
2018-01-19T00:43:47.071Z,58.12
2018-01-19T00:46:14.795Z,57.70
2018-01-19T00:48:42.464Z,58.23
2018-01-19T00:51:10.565Z,57.74
2018-01-19T00:53:38.158Z,57.33
2018-01-19T00:56:05.835Z,57.04
2018-01-19T00:58:33.670Z,57.29
2018-01-19T01:01:01.310Z,57.68
2018-01-19T01:03:29.050Z,57.14
2018-01-19T01:05:56.695Z,56.66
2018-01-19T01:08:24.385Z,56.26
2018-01-19T01:10:52.962Z,57.42
2018-01-19T01:13:20.604Z,57.47
2018-01-19T01:15:48.274Z,57.30
2018-01-19T01:18:15.888Z,58.04
2018-01-19T01:20:43.479Z,57.02
2018-01-19T01:23:11.115Z,56.04
2018-01-19T01:25:38.713Z,57.04
2018-01-19T01:28:06.359Z,56.84
2018-01-19T01:30:34.084Z,56.99
2018-01-19T01:33:01.824Z,57.06
2018-01-19T01:35:29.495Z,57.86
2018-01-19T01:37:57.173Z,56.89
2018-01-19T01:40:24.830Z,56.27
2018-01-19T01:42:52.418Z,57.08
2018-01-19T01:45:20.094Z,57.84
2018-01-19T01:47:47.735Z,58.36
2018-01-19T01:50:15.452Z,58.96
2018-01-19T01:52:43.159Z,58.49
2018-01-19T01:55:10.785Z,57.48
2018-01-19T01:57:38.411Z,55.96
2018-01-19T02:00:07.319Z,57.51
2018-01-19T02:02:34.946Z,58.37
2018-01-19T02:05:02.651Z,58.87
2018-01-19T02:07:30.439Z,58.73
2018-01-19T02:09:58.146Z,57.41
2018-01-19T02:12:25.770Z,58.87
2018-01-19T02:14:53.498Z,58.02
2018-01-19T02:17:21.120Z,58.49
2018-01-19T02:19:48.814Z,58.02
2018-01-19T02:22:17.185Z,58.80
2018-01-19T02:24:44.850Z,58.16
2018-01-19T02:27:12.506Z,57.56
2018-01-19T02:29:40.193Z,57.84
2018-01-19T02:32:08.098Z,58.10
2018-01-19T02:34:36.572Z,58.79
2018-01-19T02:37:04.281Z,58.68
2018-01-19T02:39:31.903Z,57.08
2018-01-19T02:41:59.827Z,57.25
2018-01-19T02:44:27.490Z,57.29
2018-01-19T02:46:55.180Z,56.87
2018-01-19T02:49:22.808Z,58.06
2018-01-19T02:51:50.639Z,58.37
2018-01-19T02:54:18.302Z,58.17
2018-01-19T02:56:45.873Z,58.04
2018-01-19T02:59:13.476Z,58.58
2018-01-19T03:01:41.118Z,56.51
2018-01-19T03:04:08.781Z,55.83
2018-01-19T03:06:36.958Z,56.79
2018-01-19T03:09:04.906Z,55.94
2018-01-19T03:11:33.107Z,56.20
2018-01-19T03:14:00.678Z,57.46
2018-01-19T03:16:28.443Z,55.84
2018-01-19T03:18:56.920Z,56.14
2018-01-19T03:21:24.555Z,56.32
2018-01-19T03:23:53.024Z,56.51
2018-01-19T03:26:20.632Z,55.89
2018-01-19T03:28:48.244Z,54.99
2018-01-19T03:31:16.093Z,55.44
2018-01-19T03:33:43.804Z,55.14
2018-01-19T03:36:11.467Z,55.29
2018-01-19T03:38:39.115Z,53.86
2018-01-19T03:41:07.705Z,53.60
2018-01-19T03:43:35.324Z,54.23
2018-01-19T03:46:02.969Z,55.60
2018-01-19T03:48:30.659Z,55.27
2018-01-19T03:50:58.273Z,55.49
2018-01-19T03:53:25.878Z,55.63
2018-01-19T03:55:53.634Z,55.07
2018-01-19T03:58:21.542Z,55.88
2018-01-19T04:00:49.229Z,55.48
2018-01-19T04:03:16.901Z,56.19
2018-01-19T04:05:44.594Z,56.13
2018-01-19T04:08:12.255Z,55.93
2018-01-19T04:10:39.902Z,55.97
2018-01-19T04:13:07.599Z,55.84
2018-01-19T04:15:35.280Z,56.17
2018-01-19T04:18:04.002Z,56.84
2018-01-19T04:20:31.680Z,56.92
2018-01-19T04:22:59.374Z,55.28
2018-01-19T04:25:27.053Z,56.63
2018-01-19T04:27:54.732Z,56.58
2018-01-19T04:30:22.532Z,56.69
2018-01-19T04:32:50.252Z,55.05
2018-01-19T04:35:17.966Z,55.58
2018-01-19T04:37:45.714Z,57.76
2018-01-19T04:40:13.432Z,57.97
2018-01-19T04:42:42.327Z,56.36
2018-01-19T04:45:10.102Z,56.28
2018-01-19T04:50:10.350Z,57.80
2018-01-19T04:52:38.009Z,57.57
2018-01-19T04:55:05.717Z,57.75
2018-01-19T04:57:33.719Z,57.80
2018-01-19T05:00:02.271Z,58.26
2018-01-19T05:02:29.960Z,58.43
2018-01-19T05:04:57.620Z,57.54
2018-01-19T05:07:25.275Z,56.93
2018-01-19T05:09:52.901Z,57.73
2018-01-19T05:12:20.929Z,56.50
2018-01-19T05:14:48.763Z,56.44
2018-01-19T05:17:16.869Z,56.05
2018-01-19T05:19:44.669Z,55.29
2018-01-19T05:22:12.727Z,56.04
2018-01-19T05:24:40.539Z,55.74
2018-01-19T05:27:08.222Z,55.54
2018-01-19T05:29:36.147Z,56.75
2018-01-19T05:32:05.131Z,55.74
2018-01-19T05:34:33.064Z,55.68
2018-01-19T05:37:01.012Z,56.26
2018-01-19T05:39:28.765Z,56.89
2018-01-19T05:41:56.446Z,55.86
2018-01-19T05:44:24.186Z,57.38
2018-01-19T05:49:27.750Z,56.41
2018-01-19T05:51:56.030Z,56.27
2018-01-19T05:54:23.711Z,55.28
2018-01-19T05:56:51.462Z,56.25
2018-01-19T05:59:19.936Z,56.42
2018-01-19T06:01:49.362Z,53.64
2018-01-19T06:04:17.088Z,52.67
2018-01-19T06:06:45.024Z,55.57
2018-01-19T06:09:12.748Z,75.56
2018-01-19T06:11:42.051Z,52.29
2018-01-19T06:14:09.694Z,62.03
2018-01-19T06:16:38.918Z,54.61
2018-01-19T06:19:06.589Z,48.43
2018-01-19T06:21:35.887Z,48.80
2018-01-19T06:24:03.650Z,44.96
2018-01-19T06:26:31.375Z,43.32
2018-01-19T06:28:59.392Z,44.06
2018-01-19T06:31:27.069Z,42.12
2018-01-19T06:33:54.723Z,44.31
2018-01-19T06:36:22.477Z,40.57
2018-01-19T06:38:50.106Z,38.38
2018-01-19T06:41:17.749Z,38.48
2018-01-19T06:43:45.584Z,36.93
2018-01-19T06:46:13.178Z,39.55
2018-01-19T06:48:40.765Z,37.51
2018-01-19T06:51:08.686Z,39.23
2018-01-19T06:53:36.282Z,40.58
2018-01-19T06:56:04.797Z,31.65
2018-01-19T06:58:32.412Z,36.84
2018-01-19T07:01:00.121Z,37.05
2018-01-19T07:03:27.770Z,35.25
2018-01-19T07:05:55.342Z,35.81
2018-01-19T07:08:22.944Z,37.33
2018-01-19T07:10:50.576Z,33.81
2018-01-19T07:13:18.185Z,36.03
2018-01-19T07:15:45.768Z,34.44
2018-01-19T07:18:14.354Z,34.69
2018-01-19T07:20:42.912Z,34.47
2018-01-19T07:23:10.573Z,32.41
2018-01-19T07:25:38.270Z,33.34
2018-01-19T07:28:05.974Z,32.89
2018-01-19T07:30:33.680Z,32.45
2018-01-19T07:33:01.336Z,32.56
2018-01-19T07:35:29.024Z,32.20
2018-01-19T07:37:56.648Z,31.29
2018-01-19T07:40:24.466Z,29.38
2018-01-19T07:42:52.254Z,29.16
2018-01-19T07:45:20.652Z,30.65
2018-01-19T07:47:48.425Z,28.73
2018-01-19T07:50:16.091Z,28.83
2018-01-19T07:52:43.778Z,29.54
2018-01-19T07:55:11.412Z,30.54
2018-01-19T07:57:39.097Z,30.52
2018-01-19T08:00:07.028Z,28.61
2018-01-19T08:02:34.865Z,28.14
2018-01-19T08:05:02.459Z,29.79
2018-01-19T08:07:30.107Z,29.63
2018-01-19T08:09:57.705Z,28.79
2018-01-19T08:12:25.333Z,28.86
2018-01-19T08:14:53.276Z,28.91
2018-01-19T08:17:20.976Z,32.87
2018-01-19T08:19:51.954Z,27.26
2018-01-19T08:22:24.506Z,26.87
2018-01-19T08:24:54.055Z,27.52
2018-01-19T08:27:21.793Z,27.89
2018-01-19T08:29:51.731Z,26.75
2018-01-19T08:32:19.626Z,27.21
2018-01-19T08:34:48.136Z,25.82
2018-01-19T08:37:15.777Z,25.59
2018-01-19T08:39:43.767Z,25.63
2018-01-19T08:42:11.622Z,25.99
2018-01-19T08:44:39.606Z,25.86
2018-01-19T08:47:08.572Z,25.33
2018-01-19T08:49:36.342Z,25.81
2018-01-19T08:52:04.390Z,26.08
2018-01-19T08:54:32.574Z,23.52
2018-01-19T08:57:01.714Z,23.33
2018-01-19T08:59:30.071Z,23.94
2018-01-19T09:01:58.129Z,22.72
2018-01-19T09:04:26.196Z,22.15
2018-01-19T09:06:54.381Z,23.89
2018-01-19T09:09:22.992Z,25.92
2018-01-19T09:11:51.260Z,27.44
2018-01-19T09:14:18.887Z,23.14
2018-01-19T09:16:47.180Z,22.84
2018-01-19T09:19:14.831Z,23.57
2018-01-19T09:21:42.560Z,22.43
2018-01-19T09:24:10.275Z,23.65
2018-01-19T09:26:37.958Z,24.74
2018-01-19T09:29:08.691Z,22.78
2018-01-19T09:31:41.462Z,22.76
2018-01-19T09:34:09.756Z,22.85
2018-01-19T09:36:37.754Z,23.60
2018-01-19T09:39:05.435Z,22.04
2018-01-19T09:41:33.194Z,22.48
2018-01-19T09:44:01.924Z,22.95
2018-01-19T09:46:29.541Z,23.79
2018-01-19T09:48:58.196Z,22.87
2018-01-19T09:51:25.912Z,23.18
2018-01-19T09:54:18.635Z,24.79
2018-01-19T17:42:53.433Z,49.44
2018-01-19T17:45:21.282Z,48.63
2018-01-19T17:47:49.706Z,49.59
2018-01-19T17:50:18.188Z,49.50
2018-01-19T17:52:46.305Z,49.18
2018-01-19T17:55:14.381Z,49.39
2018-01-19T17:57:43.197Z,48.51
2018-01-19T18:00:15.122Z,47.56
2018-01-19T18:02:43.693Z,48.07
2018-01-19T18:05:11.397Z,49.63
2018-01-19T18:07:40.628Z,50.07
2018-01-19T18:10:10.214Z,49.58
2018-01-19T18:12:39.447Z,48.01
2018-01-19T18:15:07.689Z,46.69
2018-01-19T18:17:42.409Z,46.35
2018-01-19T18:20:12.178Z,45.18
2018-01-19T18:22:44.827Z,44.56
2018-01-19T18:28:19.516Z,44.93
2018-01-19T18:37:56.310Z,46.22
2018-01-19T18:40:29.203Z,44.80
2018-01-19T18:42:57.396Z,45.60
2018-01-19T18:45:36.838Z,44.05
2018-01-19T18:48:08.359Z,43.06
2018-01-19T18:50:38.825Z,43.62
2018-01-19T18:53:09.373Z,45.36
2018-01-19T18:55:41.591Z,45.37
2018-01-19T18:58:10.646Z,47.67
2018-01-19T19:00:43.581Z,46.52
2018-01-19T19:09:32.787Z,46.17
2018-01-19T19:14:50.282Z,46.04
2018-01-19T19:17:21.041Z,46.84
2018-01-19T19:19:53.027Z,46.41
2018-01-19T19:22:20.773Z,47.17
2018-01-19T19:24:52.220Z,46.93
2018-01-19T19:27:22.829Z,46.16
2018-01-19T19:29:51.121Z,45.94
2018-01-19T19:32:22.862Z,45.58
2018-01-19T19:35:07.412Z,47.75
